createdAt,value
2022-08-10T00:00:59.417Z,99602.58
2022-08-10T00:07:08.143Z,99593.36
2022-08-10T00:13:27.329Z,99601.05
2022-08-10T00:19:00.608Z,99597.27
2022-08-10T00:25:40.231Z,99597.94
2022-08-10T00:30:51.739Z,99595.90
2022-08-10T00:37:08.034Z,99595.48
2022-08-10T00:43:23.841Z,99595.79
2022-08-10T00:50:20.577Z,99597.09
2022-08-10T00:57:17.920Z,99593.67
2022-08-10T01:02:59.550Z,99590.83
2022-08-10T01:09:40.823Z,99585.96
2022-08-10T01:16:38.740Z,99583.30
2022-08-10T01:23:38.868Z,99584.42
2022-08-10T01:29:36.402Z,99585.36
2022-08-10T01:35:32.276Z,99587.72
2022-08-10T01:41:54.620Z,99586.29
2022-08-10T01:48:51.471Z,99582.64
2022-08-10T01:55:45.455Z,99577.66
2022-08-10T02:02:28.356Z,99578.23
2022-08-10T02:09:17.660Z,99576.92
2022-08-10T02:16:01.974Z,99579.79
2022-08-10T02:22:45.927Z,99583.54
2022-08-10T02:29:15.476Z,99583.12
2022-08-10T02:35:44.994Z,99591.67
2022-08-10T02:45:23.508Z,99600.86
2022-08-10T02:49:06.757Z,99605.64
2022-08-10T02:55:18.420Z,99607.12
2022-08-10T03:00:34.580Z,99608.57
2022-08-10T03:06:34.573Z,99608.77
2022-08-10T03:12:50.555Z,99609.91
2022-08-10T03:20:36.033Z,99609.98
2022-08-10T03:25:01.347Z,99614.02
2022-08-10T03:31:16.239Z,99612.44
2022-08-10T03:36:46.154Z,99613.52
2022-08-10T03:43:00.144Z,99621.56
2022-08-10T03:49:45.126Z,99624.95
2022-08-10T03:56:29.625Z,99623.86
2022-08-10T04:02:47.060Z,99626.11
2022-08-10T04:09:12.739Z,99632.45
2022-08-10T04:15:45.173Z,99638.05
2022-08-10T04:22:04.362Z,99635.91
2022-08-10T04:28:12.978Z,99642.12
2022-08-10T04:34:08.999Z,99642.50
2022-08-10T04:40:28.608Z,99639.91
2022-08-10T04:46:55.416Z,99643.27
2022-08-10T04:54:04.596Z,99646.88
2022-08-10T04:59:26.463Z,99650.03
2022-08-10T05:05:37.410Z,99653.38
2022-08-10T05:12:05.575Z,99653.79
2022-08-10T05:19:08.422Z,99659.49
2022-08-10T05:25:06.443Z,99666.20
2022-08-10T05:30:34.274Z,99671.31
2022-08-10T05:37:08.383Z,99673.22
2022-08-10T05:43:30.318Z,99677.55
2022-08-10T05:49:16.686Z,99677.90
2022-08-10T05:54:59.564Z,99674.25
2022-08-10T06:00:36.637Z,99674.10
2022-08-10T06:07:27.552Z,99675.95
2022-08-10T06:13:59.632Z,99686.77
2022-08-10T06:20:37.095Z,99693.58
2022-08-10T06:26:10.721Z,99695.42
2022-08-10T06:32:42.521Z,99698.81
2022-08-10T06:39:06.998Z,99700.25
2022-08-10T06:46:09.387Z,99693.92
2022-08-10T06:52:05.546Z,99698.20
2022-08-10T06:58:00.152Z,99698.97
2022-08-10T07:03:38.252Z,99698.09
2022-08-10T07:09:43.943Z,99696.65
2022-08-10T07:15:21.252Z,99696.36
2022-08-10T07:20:47.109Z,99696.30
2022-08-10T07:26:11.644Z,99697.91
2022-08-10T07:31:57.046Z,99702.77
2022-08-10T07:37:10.944Z,99702.60
2022-08-10T07:42:45.059Z,99700.76
2022-08-10T07:48:29.492Z,99705.23
2022-08-10T07:53:53.003Z,99698.35
2022-08-10T07:59:25.065Z,99697.33
2022-08-10T08:04:54.731Z,99687.34
2022-08-10T08:11:26.342Z,99689.33
2022-08-10T08:17:11.546Z,99686.09
2022-08-10T08:24:09.604Z,99685.77
2022-08-10T08:28:58.443Z,99682.05
2022-08-10T08:35:15.136Z,99675.30
2022-08-10T08:40:34.540Z,99673.67
2022-08-10T08:46:33.378Z,99672.70
2022-08-10T08:52:18.702Z,99673.79
2022-08-10T08:57:49.425Z,99678.02
2022-08-10T09:03:15.034Z,99684.52
2022-08-10T09:09:07.193Z,99679.30
2022-08-10T09:14:50.839Z,99680.77
2022-08-10T09:21:02.050Z,99680.84
2022-08-10T09:26:16.904Z,99686.85
2022-08-10T09:36:13.944Z,99681.83
2022-08-10T09:38:15.670Z,99680.21
2022-08-10T09:44:01.490Z,99673.78
2022-08-10T09:50:04.161Z,99668.39
2022-08-10T09:57:17.894Z,99667.64
2022-08-10T10:02:56.641Z,99661.29
2022-08-10T10:08:38.371Z,99658.52
2022-08-10T10:14:57.805Z,99652.05
2022-08-10T10:21:00.806Z,99646.26
2022-08-10T10:26:58.743Z,99640.57
2022-08-10T10:33:03.474Z,99634.91
2022-08-10T10:38:33.115Z,99635.51
2022-08-10T10:43:56.909Z,99631.73
2022-08-10T10:49:41.257Z,99625.96
2022-08-10T10:55:30.720Z,99620.40
2022-08-10T11:01:23.669Z,99630.81
2022-08-10T11:07:31.986Z,99617.14
2022-08-10T11:14:23.041Z,99612.94
2022-08-10T11:20:01.327Z,99610.80
2022-08-10T11:25:36.709Z,99609.16
2022-08-10T11:31:07.278Z,99601.27
2022-08-10T11:36:41.854Z,99595.59
2022-08-10T11:42:08.884Z,99595.02
2022-08-10T11:47:36.186Z,99592.55
2022-08-10T11:53:22.876Z,99594.92
2022-08-10T11:59:00.319Z,99587.98
2022-08-10T12:04:16.909Z,99589.61
2022-08-10T12:10:11.622Z,99588.61
2022-08-10T12:15:03.436Z,99581.66
2022-08-10T12:20:16.980Z,99580.86
2022-08-10T12:26:15.414Z,99576.83
2022-08-10T12:31:22.266Z,99571.50
2022-08-10T12:36:58.086Z,99564.25
2022-08-10T12:43:13.395Z,99559.16
2022-08-10T12:48:16.995Z,99558.20
2022-08-10T12:53:26.849Z,99555.12
2022-08-10T12:59:00.020Z,99547.76
2022-08-10T13:04:22.528Z,99541.29
2022-08-10T13:09:33.583Z,99530.35
2022-08-10T13:14:53.135Z,99520.30
2022-08-10T13:20:03.418Z,99520.18
2022-08-10T13:25:24.470Z,99518.17
2022-08-10T13:30:39.633Z,99519.05
2022-08-10T13:35:48.832Z,99515.87
2022-08-10T13:41:24.579Z,99513.65
2022-08-10T13:47:10.148Z,99507.09
2022-08-10T13:52:33.888Z,99505.80
2022-08-10T13:58:03.693Z,99495.23
2022-08-10T14:03:19.415Z,99493.39
2022-08-10T14:08:29.590Z,99489.70
2022-08-10T14:13:36.226Z,99484.18
2022-08-10T14:18:45.022Z,99483.13
2022-08-10T14:23:53.015Z,99485.15
2022-08-10T14:29:06.703Z,99479.80
2022-08-10T14:36:16.543Z,99481.60
2022-08-10T14:40:04.842Z,99480.38
2022-08-10T14:45:28.101Z,99475.59
2022-08-10T14:50:33.640Z,99470.50
2022-08-10T14:56:13.685Z,99463.61
2022-08-10T15:01:22.378Z,99460.91
2022-08-10T15:06:30.653Z,99465.41
2022-08-10T15:12:15.293Z,99461.45
2022-08-10T15:16:59.718Z,99458.72
2022-08-10T15:22:35.734Z,99452.31
2022-08-10T15:27:53.522Z,99455.38
2022-08-10T15:34:02.074Z,99447.45
2022-08-10T15:39:00.803Z,99449.20
2022-08-10T15:44:06.527Z,99452.77
2022-08-10T15:49:18.159Z,99454.48
2022-08-10T15:54:55.013Z,99452.73
2022-08-10T16:00:28.171Z,99446.91
2022-08-10T16:06:03.418Z,99448.92
2022-08-10T16:11:23.062Z,99449.20
2022-08-10T16:16:34.766Z,99450.63
2022-08-10T16:21:55.222Z,99446.66
2022-08-10T16:27:26.287Z,99442.70
2022-08-10T16:33:14.390Z,99443.96
2022-08-10T16:38:52.033Z,99446.54
2022-08-10T16:44:33.762Z,99447.60
2022-08-10T16:49:49.554Z,99437.29
2022-08-10T16:55:48.972Z,99442.35
2022-08-10T17:01:24.236Z,99442.67
2022-08-10T17:07:16.054Z,99448.41
2022-08-10T17:12:47.891Z,99449.11
2022-08-10T17:18:37.348Z,99448.84
2022-08-10T17:24:11.892Z,99451.46
2022-08-10T17:29:58.483Z,99451.27
2022-08-10T17:36:05.870Z,99455.46
2022-08-10T17:41:28.503Z,99457.32
2022-08-10T17:47:11.079Z,99456.48
2022-08-10T17:53:00.830Z,99457.00
2022-08-10T17:58:18.608Z,99456.93
2022-08-10T18:03:51.464Z,99455.52
2022-08-10T18:09:40.531Z,99456.86
2022-08-10T18:15:45.321Z,99464.02
2022-08-10T18:21:23.865Z,99467.45
2022-08-10T18:27:10.507Z,99469.10
2022-08-10T18:32:41.596Z,99473.88
2022-08-10T18:37:55.633Z,99480.39
2022-08-10T18:44:07.741Z,99487.13
2022-08-10T18:49:10.732Z,99490.69
2022-08-10T18:54:39.401Z,99492.01
2022-08-10T19:00:13.010Z,99492.34
2022-08-10T19:06:15.281Z,99491.20
2022-08-10T19:12:07.426Z,99490.51
2022-08-10T19:18:01.292Z,99492.66
2022-08-10T19:23:36.440Z,99496.77
2022-08-10T19:29:05.223Z,99498.28
2022-08-10T19:34:44.033Z,99495.63
2022-08-10T19:40:43.393Z,99502.28
2022-08-10T19:46:02.632Z,99503.46
2022-08-10T19:51:20.240Z,99500.45
2022-08-10T19:56:35.038Z,99497.09
2022-08-10T20:01:54.478Z,99494.83
2022-08-10T20:07:30.621Z,99494.09
2022-08-10T20:13:58.189Z,99488.54
2022-08-10T20:19:54.866Z,99492.91
2022-08-10T20:26:09.746Z,99486.24
2022-08-10T20:32:31.405Z,99489.10
2022-08-10T20:38:12.230Z,99492.27
2022-08-10T20:44:17.355Z,99491.91
2022-08-10T20:50:44.559Z,99491.39
2022-08-10T20:56:25.674Z,99494.98
2022-08-10T21:02:31.852Z,99494.91
2022-08-10T21:08:25.824Z,99492.73
2022-08-10T21:14:44.389Z,99492.74
2022-08-10T21:20:34.475Z,99499.49
2022-08-10T21:26:29.513Z,99492.13
2022-08-10T21:32:18.597Z,99485.39
2022-08-10T21:38:15.026Z,99481.00
2022-08-10T21:45:58.312Z,99477.30
2022-08-10T21:53:04.925Z,99479.45
2022-08-10T22:00:02.423Z,99482.61
2022-08-10T22:06:52.121Z,99481.04
2022-08-10T22:13:13.156Z,99479.20
2022-08-10T22:20:01.727Z,99474.02
2022-08-10T22:26:23.826Z,99463.41
2022-08-10T22:32:58.381Z,99460.13
2022-08-10T22:40:09.403Z,99466.88
2022-08-10T22:46:42.340Z,99468.67
2022-08-10T22:53:06.784Z,99458.81
2022-08-10T22:59:22.366Z,99454.45
2022-08-10T23:06:24.018Z,99454.10
2022-08-10T23:12:59.541Z,99450.60
2022-08-10T23:20:15.612Z,99446.99
2022-08-10T23:26:57.118Z,99449.81
2022-08-10T23:34:00.876Z,99451.71
2022-08-10T23:40:26.316Z,99445.46
2022-08-10T23:46:42.119Z,99440.60
2022-08-10T23:53:32.419Z,99439.55
